Time;durP1;ratioP1;P1;durP2;ratioP2;P2;SDS_P1;SDS_P2;PMS_P1;PMS_P2;Temp;Humidity;BMP_temperature;BMP_pressure;BME280_temperature;BME280_humidity;BME280_pressure;Samples;Min_cycle;Max_cycle;Signal;HPM_P1;HPM_P2
2022/01/06 00:00:42;;;;;;;;;;;23.30;44.90;;;;;;1553587;75;1088;-66
2022/01/06 00:02:44;;;;;;;;;;;23.40;44.80;;;;;;1549363;75;775;-68
2022/01/06 00:04:45;;;;;;;;;;;23.30;44.90;;;;;;1549814;75;719;-68
2022/01/06 00:06:47;;;;;;;;;;;23.30;44.90;;;;;;1553677;75;771;-67
2022/01/06 00:08:49;;;;;;;;;;;23.40;44.90;;;;;;1557333;75;1948;-67
2022/01/06 00:10:52;;;;;;;;;;;23.40;44.90;;;;;;1551781;76;690;-68
2022/01/06 00:15:12;;;;;;;;;;;23.30;44.80;;;;;;1548852;75;1527;-67
2022/01/06 00:17:35;;;;;;;;;;;23.30;44.80;;;;;;1545086;75;1140;-66
2022/01/06 00:23:59;;;;;;;;;;;23.50;44.90;;;;;;1546371;75;1663;-68
2022/01/06 00:26:01;;;;;;;;;;;23.40;44.70;;;;;;1550311;75;782;-66
2022/01/06 00:28:03;;;;;;;;;;;23.50;44.90;;;;;;1557330;75;1915;-66
2022/01/06 00:30:06;;;;;;;;;;;23.40;44.70;;;;;;1557883;75;1147;-66
2022/01/06 00:32:08;;;;;;;;;;;23.50;44.90;;;;;;1556822;75;728;-67
2022/01/06 00:34:14;;;;;;;;;;;23.40;44.70;;;;;;1559382;75;738;-67
2022/01/06 00:36:13;;;;;;;;;;;23.40;44.70;;;;;;1549756;75;1203;-67
2022/01/06 00:38:15;;;;;;;;;;;23.50;44.90;;;;;;1559127;75;703;-67
2022/01/06 00:40:17;;;;;;;;;;;23.40;44.70;;;;;;1553090;75;1155;-67
2022/01/06 00:42:19;;;;;;;;;;;23.40;44.70;;;;;;1547825;75;812;-68
2022/01/06 00:44:21;;;;;;;;;;;23.40;44.70;;;;;;1548728;75;774;-67
2022/01/06 00:46:22;;;;;;;;;;;23.50;44.90;;;;;;1550735;75;736;-67
2022/01/06 00:48:24;;;;;;;;;;;23.40;44.70;;;;;;1556635;75;1931;-66
2022/01/06 00:50:26;;;;;;;;;;;23.40;44.70;;;;;;1557417;75;1173;-67
2022/01/06 00:52:28;;;;;;;;;;;23.40;44.70;;;;;;1544965;76;720;-68
2022/01/06 00:54:32;;;;;;;;;;;23.50;44.70;;;;;;1555961;75;667;-69
2022/01/06 00:56:34;;;;;;;;;;;23.40;44.70;;;;;;1558573;76;707;-69
2022/01/06 00:58:35;;;;;;;;;;;23.50;44.90;;;;;;1553416;75;798;-69
2022/01/06 01:00:42;;;;;;;;;;;23.40;44.70;;;;;;1552863;75;1185;-68
2022/01/06 01:02:41;;;;;;;;;;;23.40;44.70;;;;;;1559283;75;1451;-67
2022/01/06 01:04:43;;;;;;;;;;;23.40;44.70;;;;;;1552840;75;771;-69
2022/01/06 01:06:45;;;;;;;;;;;23.40;44.70;;;;;;1558655;75;751;-68
2022/01/06 01:08:47;;;;;;;;;;;23.40;44.80;;;;;;1561573;75;1943;-69
2022/01/06 01:10:49;;;;;;;;;;;23.40;44.80;;;;;;1561493;75;1127;-69
2022/01/06 01:13:14;;;;;;;;;;;23.40;44.80;;;;;;1570713;75;719;-69
2022/01/06 01:15:19;;;;;;;;;;;23.40;44.70;;;;;;1560038;75;1073;-67
2022/01/06 01:17:17;;;;;;;;;;;23.30;44.90;;;;;;1574290;75;1633;-68
2022/01/06 01:19:19;;;;;;;;;;;23.40;44.90;;;;;;1563390;75;1150;-69
2022/01/06 01:21:26;;;;;;;;;;;23.40;44.90;;;;;;1568837;75;735;-69
2022/01/06 01:23:24;;;;;;;;;;;23.30;44.80;;;;;;1564687;75;1643;-68
2022/01/06 01:25:26;;;;;;;;;;;23.30;44.70;;;;;;1560736;76;774;-68
2022/01/06 01:27:34;;;;;;;;;;;23.40;44.70;;;;;;1567101;75;601;-67
2022/01/06 01:29:34;;;;;;;;;;;23.30;44.70;;;;;;1567697;75;1922;-69
2022/01/06 01:31:43;;;;;;;;;;;23.30;44.70;;;;;;1549068;75;1453;-68
2022/01/06 01:33:39;;;;;;;;;;;23.30;44.70;;;;;;1561904;75;1106;-68
2022/01/06 01:35:41;;;;;;;;;;;23.40;44.70;;;;;;1568049;75;685;-68
2022/01/06 01:37:43;;;;;;;;;;;23.30;44.60;;;;;;1570510;75;707;-67
2022/01/06 01:39:45;;;;;;;;;;;23.30;44.60;;;;;;1557405;76;1153;-68
2022/01/06 01:41:47;;;;;;;;;;;23.40;44.50;;;;;;1561651;75;712;-68
2022/01/06 01:43:50;;;;;;;;;;;23.40;44.60;;;;;;1551173;76;689;-67
2022/01/06 01:45:56;;;;;;;;;;;23.40;44.50;;;;;;1568320;75;685;-69
2022/01/06 01:47:57;;;;;;;;;;;23.40;44.50;;;;;;1569921;75;1923;-69
2022/01/06 01:50:21;;;;;;;;;;;23.40;44.50;;;;;;1563899;75;1200;-70
2022/01/06 01:52:18;;;;;;;;;;;23.50;44.60;;;;;;1562771;75;1054;-68
2022/01/06 01:54:20;;;;;;;;;;;23.40;44.50;;;;;;1551072;75;763;-69
2022/01/06 01:56:22;;;;;;;;;;;23.40;44.40;;;;;;1560316;75;688;-69
2022/01/06 01:58:24;;;;;;;;;;;23.40;44.40;;;;;;1549713;75;960;-70
2022/01/06 02:00:26;;;;;;;;;;;23.40;44.50;;;;;;1556660;75;1098;-69
2022/01/06 02:02:28;;;;;;;;;;;23.40;44.50;;;;;;1545219;76;742;-69
2022/01/06 02:04:30;;;;;;;;;;;23.40;44.40;;;;;;1549134;76;742;-68
2022/01/06 02:06:32;;;;;;;;;;;23.40;44.50;;;;;;1566211;75;703;-68
2022/01/06 02:08:34;;;;;;;;;;;23.40;44.50;;;;;;1549044;75;1940;-68
2022/01/06 02:10:35;;;;;;;;;;;23.40;44.40;;;;;;1556132;75;1149;-68
2022/01/06 02:12:40;;;;;;;;;;;23.40;44.40;;;;;;1552752;76;780;-69
2022/01/06 02:14:41;;;;;;;;;;;23.40;44.40;;;;;;1556624;75;1615;-70
2022/01/06 02:16:43;;;;;;;;;;;23.40;44.40;;;;;;1551934;75;649;-68
2022/01/06 02:18:45;;;;;;;;;;;23.40;44.40;;;;;;1550055;75;698;-68
2022/01/06 02:20:46;;;;;;;;;;;23.30;44.40;;;;;;1572180;75;1090;-68
2022/01/06 02:22:49;;;;;;;;;;;23.40;44.40;;;;;;1562006;75;768;-68
2022/01/06 02:24:51;;;;;;;;;;;23.40;44.40;;;;;;1555867;75;748;-68
2022/01/06 02:26:52;;;;;;;;;;;23.30;44.50;;;;;;1565596;75;777;-68
2022/01/06 02:28:54;;;;;;;;;;;23.30;44.50;;;;;;1556761;75;1928;-68
2022/01/06 02:30:57;;;;;;;;;;;23.40;44.50;;;;;;1548527;75;704;-67
2022/01/06 02:33:01;;;;;;;;;;;23.30;44.50;;;;;;1557692;75;683;-67
2022/01/06 02:35:03;;;;;;;;;;;23.40;44.40;;;;;;1561162;75;941;-68
2022/01/06 02:37:05;;;;;;;;;;;23.30;44.40;;;;;;1561138;75;706;-68
2022/01/06 02:39:09;;;;;;;;;;;23.40;44.40;;;;;;1568571;75;1126;-68
2022/01/06 02:41:11;;;;;;;;;;;23.30;44.40;;;;;;1555872;75;767;-69
2022/01/06 02:43:16;;;;;;;;;;;23.30;44.40;;;;;;1551494;75;720;-68
2022/01/06 02:45:17;;;;;;;;;;;23.30;44.40;;;;;;1563698;75;1699;-69
2022/01/06 02:47:19;;;;;;;;;;;23.30;44.40;;;;;;1551140;75;810;-68
2022/01/06 02:49:21;;;;;;;;;;;23.30;44.30;;;;;;1557499;75;1934;-69
2022/01/06 02:51:23;;;;;;;;;;;23.30;44.40;;;;;;1560128;75;728;-68
2022/01/06 02:53:25;;;;;;;;;;;23.30;44.30;;;;;;1550246;76;783;-68
2022/01/06 02:55:27;;;;;;;;;;;23.30;44.30;;;;;;1555062;75;814;-69
2022/01/06 02:57:28;;;;;;;;;;;23.40;44.30;;;;;;1551775;75;962;-69
2022/01/06 02:59:30;;;;;;;;;;;23.30;44.30;;;;;;1548554;75;1150;-67
2022/01/06 03:01:32;;;;;;;;;;;23.30;44.30;;;;;;1561841;75;687;-69
2022/01/06 03:03:34;;;;;;;;;;;23.30;44.30;;;;;;1530458;76;1167;-68
2022/01/06 03:05:36;;;;;;;;;;;23.30;44.30;;;;;;1560939;75;670;-69
2022/01/06 03:07:38;;;;;;;;;;;23.30;44.20;;;;;;1555853;75;737;-68
2022/01/06 03:09:42;;;;;;;;;;;23.30;44.20;;;;;;1552378;75;1932;-67
2022/01/06 03:11:44;;;;;;;;;;;23.30;44.20;;;;;;1559718;75;1458;-67
2022/01/06 03:13:46;;;;;;;;;;;23.30;44.20;;;;;;1561169;75;732;-69
2022/01/06 03:15:48;;;;;;;;;;;23.30;44.20;;;;;;1568107;75;768;-68
2022/01/06 03:17:51;;;;;;;;;;;23.30;44.20;;;;;;1554382;75;790;-69
2022/01/06 03:19:53;;;;;;;;;;;23.30;44.20;;;;;;1542915;75;1693;-68
2022/01/06 03:21:55;;;;;;;;;;;23.30;44.20;;;;;;1571259;75;773;-69
2022/01/06 03:23:57;;;;;;;;;;;23.30;44.20;;;;;;1566922;75;798;-68
2022/01/06 03:25:59;;;;;;;;;;;23.30;44.10;;;;;;1553132;75;789;-69
2022/01/06 03:28:01;;;;;;;;;;;23.30;44.10;;;;;;1564077;75;780;-68
2022/01/06 03:30:04;;;;;;;;;;;23.30;44.00;;;;;;1561170;75;1932;-68
2022/01/06 03:32:06;;;;;;;;;;;23.30;44.00;;;;;;1552732;75;1896;-66
2022/01/06 03:34:08;;;;;;;;;;;23.30;44.10;;;;;;1543263;75;745;-69
2022/01/06 03:36:10;;;;;;;;;;;23.30;44.20;;;;;;1544670;75;782;-69
2022/01/06 03:38:12;;;;;;;;;;;23.40;44.10;;;;;;1564147;75;799;-67
2022/01/06 03:40:14;;;;;;;;;;;23.50;44.10;;;;;;1560792;75;1096;-69
2022/01/06 03:42:16;;;;;;;;;;;23.40;43.90;;;;;;1552843;75;789;-67
2022/01/06 03:44:18;;;;;;;;;;;23.50;44.10;;;;;;1551256;75;699;-67
2022/01/06 03:46:20;;;;;;;;;;;23.40;44.00;;;;;;1553258;75;715;-68
2022/01/06 03:48:22;;;;;;;;;;;23.50;44.10;;;;;;1553604;75;745;-68
2022/01/06 03:50:23;;;;;;;;;;;23.40;44.00;;;;;;1552167;75;1935;-68
2022/01/06 03:52:25;;;;;;;;;;;23.40;44.00;;;;;;1551876;75;689;-68
2022/01/06 03:54:27;;;;;;;;;;;23.40;44.00;;;;;;1551066;76;837;-68
2022/01/06 03:56:29;;;;;;;;;;;23.40;44.00;;;;;;1552578;75;720;-69
2022/01/06 03:58:31;;;;;;;;;;;23.40;44.00;;;;;;1543966;75;749;-68
2022/01/06 04:00:33;;;;;;;;;;;23.40;44.00;;;;;;1554465;73;2146;-68
2022/01/06 04:02:35;;;;;;;;;;;23.50;44.10;;;;;;1552190;74;770;-68
2022/01/06 04:04:37;;;;;;;;;;;23.40;43.90;;;;;;1550414;74;743;-68
2022/01/06 04:06:40;;;;;;;;;;;23.40;43.90;;;;;;1546342;75;724;-68
2022/01/06 04:08:41;;;;;;;;;;;23.40;43.90;;;;;;1556006;74;1940;-69
2022/01/06 04:10:43;;;;;;;;;;;23.40;43.80;;;;;;1563753;73;1201;-68
2022/01/06 04:12:45;;;;;;;;;;;23.50;43.90;;;;;;1579173;73;738;-69
2022/01/06 04:14:47;;;;;;;;;;;23.40;43.70;;;;;;1577385;73;903;-68
2022/01/06 04:16:50;;;;;;;;;;;23.50;43.90;;;;;;1577510;73;726;-68
2022/01/06 04:18:52;;;;;;;;;;;23.40;43.80;;;;;;1581582;73;661;-68
2022/01/06 04:20:53;;;;;;;;;;;23.40;43.80;;;;;;1577591;73;1147;-68
2022/01/06 04:22:55;;;;;;;;;;;23.40;43.80;;;;;;1577964;73;780;-68
2022/01/06 04:24:57;;;;;;;;;;;23.40;43.80;;;;;;1575491;73;774;-72
2022/01/06 04:26:59;;;;;;;;;;;23.50;43.90;;;;;;1572888;73;781;-70
2022/01/06 04:29:01;;;;;;;;;;;23.50;43.90;;;;;;1571171;73;1974;-68
2022/01/06 04:31:03;;;;;;;;;;;23.40;43.80;;;;;;1577887;73;1140;-68
2022/01/06 04:33:05;;;;;;;;;;;23.50;43.90;;;;;;1577705;73;756;-68
2022/01/06 04:35:07;;;;;;;;;;;23.50;43.90;;;;;;1579859;73;762;-69
2022/01/06 04:37:09;;;;;;;;;;;23.50;43.90;;;;;;1577145;73;698;-71
2022/01/06 04:39:11;;;;;;;;;;;23.40;43.70;;;;;;1579781;73;724;-68
2022/01/06 04:41:12;;;;;;;;;;;23.40;43.70;;;;;;1573444;73;1140;-69
2022/01/06 04:43:14;;;;;;;;;;;23.40;43.70;;;;;;1577774;73;715;-69
2022/01/06 04:45:16;;;;;;;;;;;23.40;43.70;;;;;;1579407;73;727;-70
2022/01/06 04:47:18;;;;;;;;;;;23.40;43.70;;;;;;1573514;73;741;-68
2022/01/06 04:49:22;;;;;;;;;;;23.50;43.80;;;;;;1581387;73;1934;-68
2022/01/06 04:51:24;;;;;;;;;;;23.50;43.80;;;;;;1577800;73;1171;-68
2022/01/06 04:53:25;;;;;;;;;;;23.50;43.70;;;;;;1575664;74;763;-69
2022/01/06 04:55:27;;;;;;;;;;;23.50;43.70;;;;;;1575552;73;772;-68
2022/01/06 04:57:29;;;;;;;;;;;23.40;43.60;;;;;;1579368;73;618;-68
2022/01/06 04:59:31;;;;;;;;;;;23.50;43.70;;;;;;1577850;73;772;-69
2022/01/06 05:01:33;;;;;;;;;;;23.40;43.60;;;;;;1582420;73;1028;-70
2022/01/06 05:03:35;;;;;;;;;;;23.40;43.60;;;;;;1575721;74;823;-66
2022/01/06 05:05:37;;;;;;;;;;;23.40;43.60;;;;;;1581501;73;740;-68
2022/01/06 05:07:39;;;;;;;;;;;23.50;43.80;;;;;;1582552;73;746;-68
2022/01/06 05:09:40;;;;;;;;;;;23.40;43.60;;;;;;1583030;73;1940;-67
2022/01/06 05:11:42;;;;;;;;;;;23.50;43.70;;;;;;1583175;73;801;-68
2022/01/06 05:13:44;;;;;;;;;;;23.40;43.60;;;;;;1577742;73;757;-69
2022/01/06 05:15:46;;;;;;;;;;;23.40;43.50;;;;;;1576584;73;808;-69
2022/01/06 05:17:48;;;;;;;;;;;23.50;43.60;;;;;;1578565;73;813;-70
2022/01/06 05:19:50;;;;;;;;;;;23.40;43.50;;;;;;1574819;73;1176;-67
2022/01/06 05:21:52;;;;;;;;;;;23.50;43.70;;;;;;1578024;73;780;-67
2022/01/06 05:23:54;;;;;;;;;;;23.50;43.60;;;;;;1575732;73;732;-66
2022/01/06 05:25:57;;;;;;;;;;;23.50;43.60;;;;;;1574933;73;734;-67
2022/01/06 05:27:59;;;;;;;;;;;23.50;43.60;;;;;;1578048;73;783;-69
2022/01/06 05:30:00;;;;;;;;;;;23.50;43.60;;;;;;1580737;73;1946;-67
2022/01/06 05:32:02;;;;;;;;;;;23.40;43.50;;;;;;1575050;73;805;-67
2022/01/06 05:34:04;;;;;;;;;;;23.50;43.50;;;;;;1577329;73;787;-67
2022/01/06 05:36:06;;;;;;;;;;;23.50;43.60;;;;;;1577990;73;786;-66
2022/01/06 05:38:08;;;;;;;;;;;23.50;43.60;;;;;;1580436;74;748;-67
2022/01/06 05:40:10;;;;;;;;;;;23.50;43.50;;;;;;1578220;73;1148;-66
2022/01/06 05:42:13;;;;;;;;;;;23.50;43.50;;;;;;1580012;73;794;-66
2022/01/06 05:44:15;;;;;;;;;;;23.50;43.40;;;;;;1577811;73;786;-66
2022/01/06 05:46:17;;;;;;;;;;;23.40;43.40;;;;;;1573356;73;791;-66
2022/01/06 05:48:19;;;;;;;;;;;23.50;43.40;;;;;;1581939;73;800;-66
2022/01/06 05:50:21;;;;;;;;;;;23.40;43.30;;;;;;1592532;73;1945;-66
2022/01/06 05:52:23;;;;;;;;;;;23.50;43.40;;;;;;1584106;73;800;-66
2022/01/06 05:54:25;;;;;;;;;;;23.40;43.20;;;;;;1573918;73;736;-67
2022/01/06 05:56:28;;;;;;;;;;;23.40;43.30;;;;;;1592539;73;729;-69
2022/01/06 05:58:30;;;;;;;;;;;23.50;43.40;;;;;;1581262;73;751;-66
2022/01/06 06:00:32;;;;;;;;;;;23.50;43.40;;;;;;1597101;73;1135;-67
2022/01/06 06:02:34;;;;;;;;;;;23.40;43.30;;;;;;1586138;74;800;-66
2022/01/06 06:04:36;;;;;;;;;;;23.40;43.30;;;;;;1586118;73;776;-66
2022/01/06 06:06:38;;;;;;;;;;;23.50;43.40;;;;;;1593876;73;712;-67
2022/01/06 06:08:40;;;;;;;;;;;23.40;43.40;;;;;;1568868;74;759;-65
2022/01/06 06:10:42;;;;;;;;;;;23.40;43.30;;;;;;1589922;73;2023;-66
2022/01/06 06:12:44;;;;;;;;;;;23.40;43.40;;;;;;1611984;73;767;-67
2022/01/06 06:14:46;;;;;;;;;;;23.40;43.30;;;;;;1587662;73;783;-67
2022/01/06 06:16:48;;;;;;;;;;;23.40;43.30;;;;;;1619844;73;740;-67
2022/01/06 06:18:50;;;;;;;;;;;23.40;43.30;;;;;;1591235;73;802;-69
2022/01/06 06:20:52;;;;;;;;;;;23.40;43.30;;;;;;1590494;73;1100;-67
2022/01/06 06:22:54;;;;;;;;;;;23.40;43.30;;;;;;1585048;73;719;-68
2022/01/06 06:24:56;;;;;;;;;;;23.40;43.20;;;;;;1607451;73;767;-71
2022/01/06 06:26:58;;;;;;;;;;;23.50;43.40;;;;;;1574649;73;861;-67
2022/01/06 06:29:00;;;;;;;;;;;23.40;43.20;;;;;;1575418;73;773;-66
2022/01/06 06:31:02;;;;;;;;;;;23.50;43.30;;;;;;1591683;74;1940;-67
2022/01/06 06:33:04;;;;;;;;;;;23.50;43.30;;;;;;1593246;73;715;-66
2022/01/06 06:35:06;;;;;;;;;;;23.50;43.20;;;;;;1601798;73;803;-66
2022/01/06 06:37:08;;;;;;;;;;;23.50;43.20;;;;;;1588390;73;795;-67
2022/01/06 06:39:10;;;;;;;;;;;23.60;43.10;;;;;;1610000;73;751;-67
2022/01/06 06:41:11;;;;;;;;;;;23.60;43.10;;;;;;1601490;73;1103;-67
2022/01/06 06:43:13;;;;;;;;;;;23.60;43.20;;;;;;1593806;73;752;-69
2022/01/06 06:45:15;;;;;;;;;;;23.50;43.10;;;;;;1582405;73;798;-66
2022/01/06 06:47:17;;;;;;;;;;;23.50;43.10;;;;;;1585192;73;788;-67
2022/01/06 06:49:19;;;;;;;;;;;23.60;43.10;;;;;;1576970;73;782;-66
2022/01/06 06:51:21;;;;;;;;;;;23.50;43.10;;;;;;1575270;73;1889;-67
2022/01/06 06:53:23;;;;;;;;;;;23.50;43.10;;;;;;1584500;73;773;-67
2022/01/06 06:55:25;;;;;;;;;;;23.50;43.10;;;;;;1584789;74;805;-68
2022/01/06 06:57:27;;;;;;;;;;;23.50;43.10;;;;;;1594789;73;700;-68
2022/01/06 06:59:29;;;;;;;;;;;23.50;43.00;;;;;;1600025;73;676;-68
2022/01/06 07:01:31;;;;;;;;;;;23.50;43.10;;;;;;1602573;73;1102;-69
2022/01/06 07:03:32;;;;;;;;;;;23.50;43.00;;;;;;1590327;73;762;-69
2022/01/06 07:05:35;;;;;;;;;;;23.50;43.00;;;;;;1603768;73;806;-67
2022/01/06 07:07:37;;;;;;;;;;;23.50;43.10;;;;;;1585093;73;765;-67
2022/01/06 07:09:38;;;;;;;;;;;23.50;43.10;;;;;;1619017;72;1126;-67
2022/01/06 07:11:40;;;;;;;;;;;23.50;43.10;;;;;;1582896;73;1978;-66
2022/01/06 07:13:42;;;;;;;;;;;23.40;43.00;;;;;;1585105;73;732;-72
2022/01/06 07:15:44;;;;;;;;;;;23.50;43.10;;;;;;1595810;73;741;-67
2022/01/06 07:17:46;;;;;;;;;;;23.50;43.10;;;;;;1587501;73;776;-68
2022/01/06 07:19:48;;;;;;;;;;;23.50;43.10;;;;;;1602850;72;1099;-67
2022/01/06 07:21:50;;;;;;;;;;;23.40;42.90;;;;;;1609283;73;706;-68
2022/01/06 07:23:55;;;;;;;;;;;23.50;43.00;;;;;;1593647;73;795;-68
2022/01/06 07:25:57;;;;;;;;;;;23.50;43.00;;;;;;1595863;73;732;-67
2022/01/06 07:27:59;;;;;;;;;;;23.50;42.90;;;;;;1613009;73;773;-70
2022/01/06 07:30:00;;;;;;;;;;;23.50;43.00;;;;;;1598897;73;1949;-67
2022/01/06 07:32:02;;;;;;;;;;;23.50;42.90;;;;;;1595617;73;748;-70
2022/01/06 07:34:04;;;;;;;;;;;23.50;43.00;;;;;;1599110;73;832;-67
2022/01/06 07:36:07;;;;;;;;;;;23.50;42.90;;;;;;1570469;73;882;-67
2022/01/06 07:38:09;;;;;;;;;;;23.50;43.00;;;;;;1574289;73;839;-68
2022/01/06 07:40:12;;;;;;;;;;;23.40;42.80;;;;;;1616626;73;1170;-68
2022/01/06 07:42:14;;;;;;;;;;;23.50;43.00;;;;;;1593732;73;857;-66
2022/01/06 07:44:15;;;;;;;;;;;23.40;42.80;;;;;;1604431;73;679;-64
2022/01/06 07:46:17;;;;;;;;;;;23.50;42.90;;;;;;1592883;73;786;-67
2022/01/06 07:48:26;;;;;;;;;;;23.50;42.90;;;;;;1588890;73;722;-70
2022/01/06 07:50:24;;;;;;;;;;;23.50;42.90;;;;;;1602867;73;1943;-67
2022/01/06 07:52:26;;;;;;;;;;;23.50;42.90;;;;;;1582674;73;1793;-67
2022/01/06 07:54:28;;;;;;;;;;;23.50;43.00;;;;;;1596994;74;687;-68
2022/01/06 07:56:30;;;;;;;;;;;23.50;42.90;;;;;;1612399;73;763;-69
2022/01/06 07:58:32;;;;;;;;;;;23.50;42.90;;;;;;1601204;73;815;-67
2022/01/06 08:00:34;;;;;;;;;;;23.50;42.90;;;;;;1593743;73;1140;-66
2022/01/06 08:02:35;;;;;;;;;;;23.50;42.80;;;;;;1583824;73;794;-67
2022/01/06 08:04:37;;;;;;;;;;;23.50;42.80;;;;;;1581812;73;686;-69
2022/01/06 08:06:39;;;;;;;;;;;23.50;42.80;;;;;;1596537;73;745;-72
2022/01/06 08:08:41;;;;;;;;;;;23.50;42.90;;;;;;1575780;74;764;-66
2022/01/06 08:10:43;;;;;;;;;;;23.40;42.80;;;;;;1584150;73;1940;-67
2022/01/06 08:12:45;;;;;;;;;;;23.50;43.00;;;;;;1574053;73;754;-67
2022/01/06 08:14:47;;;;;;;;;;;23.50;43.00;;;;;;1584560;73;759;-68
2022/01/06 08:16:49;;;;;;;;;;;23.50;43.00;;;;;;1581668;73;780;-66
2022/01/06 08:18:51;;;;;;;;;;;23.50;43.10;;;;;;1574094;73;776;-67
2022/01/06 08:20:53;;;;;;;;;;;23.50;43.00;;;;;;1577206;73;1144;-66
2022/01/06 08:22:54;;;;;;;;;;;23.50;43.00;;;;;;1576170;73;819;-67
2022/01/06 08:24:56;;;;;;;;;;;23.50;43.00;;;;;;1608347;73;773;-69
2022/01/06 08:26:58;;;;;;;;;;;23.50;43.00;;;;;;1584112;73;755;-67
2022/01/06 08:29:00;;;;;;;;;;;23.50;43.00;;;;;;1579694;74;721;-67
2022/01/06 08:31:02;;;;;;;;;;;23.50;43.00;;;;;;1576645;73;1949;-69
2022/01/06 08:33:04;;;;;;;;;;;23.50;43.10;;;;;;1586999;73;789;-67
2022/01/06 08:35:06;;;;;;;;;;;23.40;42.80;;;;;;1580113;73;703;-66
2022/01/06 08:37:08;;;;;;;;;;;23.50;42.90;;;;;;1592165;74;753;-66
2022/01/06 08:39:10;;;;;;;;;;;23.50;42.90;;;;;;1585319;74;822;-67
2022/01/06 08:41:12;;;;;;;;;;;23.50;42.80;;;;;;1600499;73;1136;-67
2022/01/06 08:43:14;;;;;;;;;;;23.50;42.80;;;;;;1589755;73;735;-67
2022/01/06 08:45:20;;;;;;;;;;;23.50;42.80;;;;;;1578230;73;780;-67
2022/01/06 08:47:19;;;;;;;;;;;23.40;42.70;;;;;;1601518;73;1208;-66
2022/01/06 08:49:21;;;;;;;;;;;23.50;42.70;;;;;;1601118;73;733;-68
2022/01/06 08:51:23;;;;;;;;;;;23.50;42.60;;;;;;1588559;72;1936;-69
2022/01/06 08:53:25;;;;;;;;;;;23.50;42.60;;;;;;1606322;73;745;-67
2022/01/06 08:55:27;;;;;;;;;;;23.50;42.50;;;;;;1589641;73;776;-67
2022/01/06 08:57:29;;;;;;;;;;;23.50;42.40;;;;;;1582082;73;764;-67
2022/01/06 08:59:31;;;;;;;;;;;23.50;42.40;;;;;;1574151;74;728;-67
2022/01/06 09:01:33;;;;;;;;;;;23.60;42.30;;;;;;1575953;73;1096;-69
2022/01/06 09:03:35;;;;;;;;;;;23.50;42.30;;;;;;1586052;73;787;-67
2022/01/06 09:05:37;;;;;;;;;;;23.50;42.30;;;;;;1599897;73;633;-67
2022/01/06 09:07:39;;;;;;;;;;;23.60;42.30;;;;;;1598459;73;754;-68
2022/01/06 09:09:41;;;;;;;;;;;23.50;42.30;;;;;;1600808;73;1160;-67
2022/01/06 09:11:43;;;;;;;;;;;23.50;42.30;;;;;;1602804;73;1945;-69
2022/01/06 09:13:44;;;;;;;;;;;23.50;42.30;;;;;;1621221;73;715;-68
2022/01/06 09:15:46;;;;;;;;;;;23.50;42.50;;;;;;1584715;73;744;-67
2022/01/06 09:17:48;;;;;;;;;;;23.50;42.40;;;;;;1583020;73;797;-64
2022/01/06 09:19:50;;;;;;;;;;;23.60;42.30;;;;;;1580812;73;1258;-67
2022/01/06 09:21:52;;;;;;;;;;;23.50;42.20;;;;;;1576628;73;775;-67
2022/01/06 09:23:56;;;;;;;;;;;23.50;42.20;;;;;;1615879;73;755;-67
2022/01/06 09:25:57;;;;;;;;;;;23.60;42.30;;;;;;1576419;73;1546;-69
2022/01/06 09:27:59;;;;;;;;;;;23.50;42.20;;;;;;1603462;73;793;-67
2022/01/06 09:30:01;;;;;;;;;;;23.50;42.20;;;;;;1601445;73;1166;-67
2022/01/06 09:32:03;;;;;;;;;;;23.60;42.10;;;;;;1586663;73;1941;-67
2022/01/06 09:34:05;;;;;;;;;;;23.50;42.10;;;;;;1592155;73;955;-67
2022/01/06 09:36:07;;;;;;;;;;;23.50;42.10;;;;;;1590369;73;804;-67
2022/01/06 09:38:09;;;;;;;;;;;23.50;42.00;;;;;;1591590;73;777;-68
2022/01/06 09:40:11;;;;;;;;;;;23.60;42.00;;;;;;1605756;73;1068;-68
2022/01/06 09:42:13;;;;;;;;;;;23.60;42.00;;;;;;1589156;73;675;-67
2022/01/06 09:44:15;;;;;;;;;;;23.50;42.00;;;;;;1603470;73;808;-67
2022/01/06 09:46:17;;;;;;;;;;;23.60;41.90;;;;;;1575803;73;670;-67
2022/01/06 09:48:22;;;;;;;;;;;23.50;41.80;;;;;;1591143;73;881;-67
2022/01/06 09:50:24;;;;;;;;;;;23.60;41.80;;;;;;1600318;73;1234;-67
2022/01/06 09:52:26;;;;;;;;;;;23.50;41.80;;;;;;1610362;73;1951;-67
2022/01/06 09:54:27;;;;;;;;;;;23.50;41.80;;;;;;1599280;73;721;-66
2022/01/06 09:56:29;;;;;;;;;;;23.50;41.80;;;;;;1598618;74;707;-67
2022/01/06 09:58:31;;;;;;;;;;;23.60;41.80;;;;;;1584209;73;734;-69
2022/01/06 10:00:34;;;;;;;;;;;23.50;41.80;;;;;;1595441;73;1152;-67
2022/01/06 10:02:39;;;;;;;;;;;23.50;41.80;;;;;;1575124;73;727;-70
2022/01/06 10:04:40;;;;;;;;;;;23.50;41.90;;;;;;1593396;73;831;-66
2022/01/06 10:06:42;;;;;;;;;;;23.50;41.70;;;;;;1574031;73;707;-67
2022/01/06 10:08:54;;;;;;;;;;;23.60;41.80;;;;;;1594029;73;628;-66
2022/01/06 10:11:15;;;;;;;;;;;23.50;41.70;;;;;;1589050;73;1904;-69
2022/01/06 10:13:19;;;;;;;;;;;23.50;41.80;;;;;;1584439;73;711;-65
2022/01/06 10:15:21;;;;;;;;;;;23.50;41.90;;;;;;1587313;73;828;-67
2022/01/06 10:17:30;;;;;;;;;;;23.40;41.80;;;;;;1595727;73;696;-66
2022/01/06 10:19:32;;;;;;;;;;;23.50;41.90;;;;;;1585626;73;759;-67
2022/01/06 10:21:37;;;;;;;;;;;23.40;41.70;;;;;;1598575;74;1134;-67
2022/01/06 10:23:39;;;;;;;;;;;23.40;41.80;;;;;;1601297;73;782;-68
2022/01/06 10:25:49;;;;;;;;;;;23.40;41.80;;;;;;1598356;74;746;-67
2022/01/06 10:27:46;;;;;;;;;;;23.50;41.90;;;;;;1593847;73;1604;-67
2022/01/06 10:29:49;;;;;;;;;;;23.40;41.80;;;;;;1589033;73;1154;-67
2022/01/06 10:31:51;;;;;;;;;;;23.50;42.00;;;;;;1596290;73;1905;-66
2022/01/06 10:33:52;;;;;;;;;;;23.40;41.80;;;;;;1597612;73;737;-67
2022/01/06 10:35:56;;;;;;;;;;;23.40;41.80;;;;;;1607290;73;775;-69
2022/01/06 10:37:59;;;;;;;;;;;23.40;41.80;;;;;;1596138;73;1896;-68
2022/01/06 10:40:03;;;;;;;;;;;23.40;41.80;;;;;;1608638;73;1159;-66
2022/01/06 10:42:05;;;;;;;;;;;23.40;41.80;;;;;;1593632;74;730;-66
2022/01/06 10:44:10;;;;;;;;;;;23.40;42.00;;;;;;1585600;73;687;-66
2022/01/06 10:46:10;;;;;;;;;;;23.40;41.80;;;;;;1593320;73;1530;-68
2022/01/06 10:48:12;;;;;;;;;;;23.40;41.80;;;;;;1612558;73;741;-67
2022/01/06 10:50:15;;;;;;;;;;;23.40;41.80;;;;;;1585645;73;1145;-67
2022/01/06 10:52:18;;;;;;;;;;;23.40;41.80;;;;;;1587166;73;1913;-68
2022/01/06 10:54:21;;;;;;;;;;;23.40;41.80;;;;;;1588862;73;1873;-67
2022/01/06 10:56:24;;;;;;;;;;;23.40;41.80;;;;;;1603305;73;700;-70
2022/01/06 10:58:26;;;;;;;;;;;23.40;41.80;;;;;;1595859;73;980;-67
2022/01/06 11:00:32;;;;;;;;;;;23.40;41.90;;;;;;1605997;73;1147;-67
2022/01/06 11:02:34;;;;;;;;;;;23.60;42.10;;;;;;1612554;73;577;-66
2022/01/06 11:04:36;;;;;;;;;;;23.30;41.90;;;;;;1606634;73;802;-67
2022/01/06 11:06:39;;;;;;;;;;;23.30;42.00;;;;;;1597150;73;620;-66
2022/01/06 11:08:42;;;;;;;;;;;23.30;42.00;;;;;;1587258;73;813;-65
2022/01/06 11:10:50;;;;;;;;;;;23.30;42.00;;;;;;1591673;73;1180;-67
2022/01/06 11:12:50;;;;;;;;;;;23.30;42.10;;;;;;1589726;73;1926;-67
2022/01/06 11:14:52;;;;;;;;;;;23.30;42.10;;;;;;1598499;73;792;-68
2022/01/06 11:16:54;;;;;;;;;;;23.30;42.20;;;;;;1598822;74;793;-69
2022/01/06 11:18:57;;;;;;;;;;;23.30;42.20;;;;;;1604235;73;720;-67
2022/01/06 11:21:02;;;;;;;;;;;23.30;42.20;;;;;;1594714;73;1172;-68
2022/01/06 11:23:04;;;;;;;;;;;23.30;42.20;;;;;;1594987;73;742;-70
2022/01/06 11:25:06;;;;;;;;;;;23.30;42.20;;;;;;1594554;73;702;-71
2022/01/06 11:27:10;;;;;;;;;;;23.30;42.30;;;;;;1601986;73;809;-68
2022/01/06 11:29:12;;;;;;;;;;;23.20;42.20;;;;;;1605198;73;780;-67
2022/01/06 11:31:15;;;;;;;;;;;23.30;42.30;;;;;;1606950;73;1155;-68
2022/01/06 11:33:17;;;;;;;;;;;23.30;42.40;;;;;;1605211;73;1893;-67
2022/01/06 11:35:19;;;;;;;;;;;23.20;42.30;;;;;;1597190;73;729;-67
2022/01/06 11:37:21;;;;;;;;;;;23.20;42.30;;;;;;1600522;73;785;-68
2022/01/06 11:39:25;;;;;;;;;;;23.20;42.30;;;;;;1601338;73;782;-68
2022/01/06 11:41:39;;;;;;;;;;;23.10;42.30;;;;;;1583507;73;1670;-67
2022/01/06 11:43:42;;;;;;;;;;;23.20;42.30;;;;;;1594586;73;717;-67
2022/01/06 11:45:44;;;;;;;;;;;23.20;42.40;;;;;;1588314;74;796;-70
2022/01/06 11:47:45;;;;;;;;;;;23.10;42.40;;;;;;1597845;73;787;-66
2022/01/06 11:49:47;;;;;;;;;;;23.20;42.40;;;;;;1602862;73;1148;-66
2022/01/06 11:51:50;;;;;;;;;;;23.20;42.40;;;;;;1596449;73;1948;-67
2022/01/06 11:53:52;;;;;;;;;;;23.20;42.40;;;;;;1588219;74;721;-70
2022/01/06 11:55:54;;;;;;;;;;;23.20;42.40;;;;;;1582550;73;819;-66
2022/01/06 11:57:56;;;;;;;;;;;23.20;42.30;;;;;;1588903;73;786;-67
2022/01/06 12:00:01;;;;;;;;;;;23.10;42.20;;;;;;1588397;73;1147;-67
2022/01/06 12:02:03;;;;;;;;;;;23.20;42.30;;;;;;1598335;73;978;-67
2022/01/06 12:04:06;;;;;;;;;;;23.20;42.20;;;;;;1596381;73;681;-68
2022/01/06 12:06:09;;;;;;;;;;;23.30;42.20;;;;;;1598786;73;1736;-67
2022/01/06 12:08:11;;;;;;;;;;;23.30;42.10;;;;;;1586466;73;816;-69
2022/01/06 12:10:13;;;;;;;;;;;23.30;41.90;;;;;;1595648;73;1146;-66
2022/01/06 12:12:16;;;;;;;;;;;23.30;41.80;;;;;;1606319;73;1954;-67
2022/01/06 12:14:27;;;;;;;;;;;23.30;41.80;;;;;;1581669;74;732;-67
2022/01/06 12:16:33;;;;;;;;;;;23.30;41.60;;;;;;1599918;73;783;-68